sensor_id;sensor_type;location;lat;lon;timestamp;P1;durP1;ratioP1;P2;durP2;ratioP2
3131;SDS011;62090;52.330;9.104;2023-04-12T00:01:33;4.07;;;1.90;;
3131;SDS011;62090;52.330;9.104;2023-04-12T00:04:02;10.67;;;3.10;;
3131;SDS011;62090;52.330;9.104;2023-04-12T00:06:32;7.00;;;1.80;;
3131;SDS011;62090;52.330;9.104;2023-04-12T00:09:02;2.63;;;1.37;;
3131;SDS011;62090;52.330;9.104;2023-04-12T00:11:36;5.27;;;1.80;;
3131;SDS011;62090;52.330;9.104;2023-04-12T00:14:06;9.90;;;2.10;;
3131;SDS011;62090;52.330;9.104;2023-04-12T00:16:36;7.40;;;2.20;;
3131;SDS011;62090;52.330;9.104;2023-04-12T00:19:07;6.63;;;2.60;;
3131;SDS011;62090;52.330;9.104;2023-04-12T00:21:37;7.50;;;2.03;;
3131;SDS011;62090;52.330;9.104;2023-04-12T00:24:06;5.33;;;1.87;;
3131;SDS011;62090;52.330;9.104;2023-04-12T00:26:39;10.07;;;2.40;;
3131;SDS011;62090;52.330;9.104;2023-04-12T00:29:09;10.77;;;2.33;;
3131;SDS011;62090;52.330;9.104;2023-04-12T00:31:39;7.33;;;2.50;;
3131;SDS011;62090;52.330;9.104;2023-04-12T00:34:09;5.83;;;2.03;;
3131;SDS011;62090;52.330;9.104;2023-04-12T00:36:39;7.03;;;2.40;;
3131;SDS011;62090;52.330;9.104;2023-04-12T00:39:09;6.53;;;2.20;;
3131;SDS011;62090;52.330;9.104;2023-04-12T00:41:41;8.27;;;2.20;;
3131;SDS011;62090;52.330;9.104;2023-04-12T00:44:11;5.23;;;2.20;;
3131;SDS011;62090;52.330;9.104;2023-04-12T00:46:43;6.80;;;2.50;;
3131;SDS011;62090;52.330;9.104;2023-04-12T00:49:13;7.40;;;2.33;;
3131;SDS011;62090;52.330;9.104;2023-04-12T00:51:43;7.87;;;2.97;;
3131;SDS011;62090;52.330;9.104;2023-04-12T00:54:13;9.80;;;3.37;;
3131;SDS011;62090;52.330;9.104;2023-04-12T00:56:46;7.20;;;2.40;;
3131;SDS011;62090;52.330;9.104;2023-04-12T00:59:16;9.93;;;2.90;;
3131;SDS011;62090;52.330;9.104;2023-04-12T01:01:46;9.70;;;3.10;;
3131;SDS011;62090;52.330;9.104;2023-04-12T01:04:17;12.20;;;2.60;;
3131;SDS011;62090;52.330;9.104;2023-04-12T01:06:52;8.97;;;3.00;;
3131;SDS011;62090;52.330;9.104;2023-04-12T01:09:34;6.07;;;1.97;;
3131;SDS011;62090;52.330;9.104;2023-04-12T01:12:19;6.40;;;2.60;;
3131;SDS011;62090;52.330;9.104;2023-04-12T01:15:01;8.83;;;3.50;;
3131;SDS011;62090;52.330;9.104;2023-04-12T01:17:37;7.27;;;2.97;;
3131;SDS011;62090;52.330;9.104;2023-04-12T01:20:13;7.10;;;2.70;;
3131;SDS011;62090;52.330;9.104;2023-04-12T01:22:51;5.40;;;2.40;;
3131;SDS011;62090;52.330;9.104;2023-04-12T01:25:36;4.77;;;2.57;;
3131;SDS011;62090;52.330;9.104;2023-04-12T01:28:11;8.37;;;3.23;;
3131;SDS011;62090;52.330;9.104;2023-04-12T01:30:45;7.83;;;2.33;;
3131;SDS011;62090;52.330;9.104;2023-04-12T01:33:20;6.87;;;2.43;;
3131;SDS011;62090;52.330;9.104;2023-04-12T01:35:57;5.63;;;2.40;;
3131;SDS011;62090;52.330;9.104;2023-04-12T01:38:33;5.50;;;2.20;;
3131;SDS011;62090;52.330;9.104;2023-04-12T01:41:03;4.27;;;2.07;;
3131;SDS011;62090;52.330;9.104;2023-04-12T01:43:41;8.90;;;2.60;;
3131;SDS011;62090;52.330;9.104;2023-04-12T01:46:11;8.23;;;2.73;;
3131;SDS011;62090;52.330;9.104;2023-04-12T01:48:44;5.20;;;2.23;;
3131;SDS011;62090;52.330;9.104;2023-04-12T01:51:19;5.37;;;2.57;;
3131;SDS011;62090;52.330;9.104;2023-04-12T01:54:02;4.17;;;1.70;;
3131;SDS011;62090;52.330;9.104;2023-04-12T01:56:37;10.50;;;2.20;;
3131;SDS011;62090;52.330;9.104;2023-04-12T01:59:13;6.00;;;1.83;;
3131;SDS011;62090;52.330;9.104;2023-04-12T02:01:45;7.50;;;2.40;;
3131;SDS011;62090;52.330;9.104;2023-04-12T02:04:17;4.97;;;1.80;;
3131;SDS011;62090;52.330;9.104;2023-04-12T02:06:48;6.43;;;2.10;;
3131;SDS011;62090;52.330;9.104;2023-04-12T02:09:17;13.30;;;2.20;;
3131;SDS011;62090;52.330;9.104;2023-04-12T02:11:48;10.13;;;1.87;;
3131;SDS011;62090;52.330;9.104;2023-04-12T02:14:20;11.03;;;2.23;;
3131;SDS011;62090;52.330;9.104;2023-04-12T02:16:52;8.77;;;2.30;;
3131;SDS011;62090;52.330;9.104;2023-04-12T02:19:25;11.40;;;2.63;;
3131;SDS011;62090;52.330;9.104;2023-04-12T02:21:55;6.73;;;2.20;;
3131;SDS011;62090;52.330;9.104;2023-04-12T02:24:27;13.20;;;3.27;;
3131;SDS011;62090;52.330;9.104;2023-04-12T02:26:57;9.50;;;1.90;;
3131;SDS011;62090;52.330;9.104;2023-04-12T02:29:30;21.77;;;2.50;;
3131;SDS011;62090;52.330;9.104;2023-04-12T02:32:00;7.50;;;2.50;;
3131;SDS011;62090;52.330;9.104;2023-04-12T02:34:30;10.83;;;3.00;;
3131;SDS011;62090;52.330;9.104;2023-04-12T02:37:13;20.97;;;2.67;;
3131;SDS011;62090;52.330;9.104;2023-04-12T02:39:43;7.50;;;1.60;;
3131;SDS011;62090;52.330;9.104;2023-04-12T02:42:14;13.33;;;2.50;;
3131;SDS011;62090;52.330;9.104;2023-04-12T02:44:49;10.40;;;2.77;;
3131;SDS011;62090;52.330;9.104;2023-04-12T02:47:19;8.77;;;2.10;;
3131;SDS011;62090;52.330;9.104;2023-04-12T02:49:54;10.13;;;2.33;;
3131;SDS011;62090;52.330;9.104;2023-04-12T02:52:24;5.63;;;1.70;;
3131;SDS011;62090;52.330;9.104;2023-04-12T02:55:04;12.83;;;3.10;;
3131;SDS011;62090;52.330;9.104;2023-04-12T02:57:35;14.63;;;2.63;;
3131;SDS011;62090;52.330;9.104;2023-04-12T03:00:09;4.67;;;1.37;;
3131;SDS011;62090;52.330;9.104;2023-04-12T03:02:44;16.73;;;2.23;;
3131;SDS011;62090;52.330;9.104;2023-04-12T03:05:21;11.00;;;1.93;;
3131;SDS011;62090;52.330;9.104;2023-04-12T03:07:51;8.33;;;2.80;;
3131;SDS011;62090;52.330;9.104;2023-04-12T03:10:32;9.77;;;1.80;;
3131;SDS011;62090;52.330;9.104;2023-04-12T03:13:02;9.40;;;1.90;;
3131;SDS011;62090;52.330;9.104;2023-04-12T03:15:45;6.37;;;1.77;;
3131;SDS011;62090;52.330;9.104;2023-04-12T03:18:16;15.40;;;2.87;;
3131;SDS011;62090;52.330;9.104;2023-04-12T03:20:48;11.03;;;2.10;;
3131;SDS011;62090;52.330;9.104;2023-04-12T03:23:18;8.20;;;2.03;;
3131;SDS011;62090;52.330;9.104;2023-04-12T03:25:58;10.57;;;2.37;;
3131;SDS011;62090;52.330;9.104;2023-04-12T03:28:32;9.67;;;1.80;;
3131;SDS011;62090;52.330;9.104;2023-04-12T03:31:07;7.63;;;2.70;;
3131;SDS011;62090;52.330;9.104;2023-04-12T03:33:41;6.33;;;1.80;;
3131;SDS011;62090;52.330;9.104;2023-04-12T03:36:23;12.23;;;2.10;;
3131;SDS011;62090;52.330;9.104;2023-04-12T03:39:00;5.27;;;2.20;;
3131;SDS011;62090;52.330;9.104;2023-04-12T03:41:32;6.77;;;1.67;;
3131;SDS011;62090;52.330;9.104;2023-04-12T03:44:03;4.57;;;1.60;;
3131;SDS011;62090;52.330;9.104;2023-04-12T03:46:37;4.00;;;1.87;;
3131;SDS011;62090;52.330;9.104;2023-04-12T03:49:09;20.33;;;2.53;;
3131;SDS011;62090;52.330;9.104;2023-04-12T03:51:40;10.67;;;1.80;;
3131;SDS011;62090;52.330;9.104;2023-04-12T03:54:11;11.73;;;1.90;;
3131;SDS011;62090;52.330;9.104;2023-04-12T03:56:54;11.33;;;2.17;;
3131;SDS011;62090;52.330;9.104;2023-04-12T03:59:30;9.50;;;3.10;;
3131;SDS011;62090;52.330;9.104;2023-04-12T04:02:02;22.93;;;2.10;;
3131;SDS011;62090;52.330;9.104;2023-04-12T04:04:36;4.30;;;1.70;;
3131;SDS011;62090;52.330;9.104;2023-04-12T04:07:09;6.80;;;2.20;;
3131;SDS011;62090;52.330;9.104;2023-04-12T04:09:42;9.60;;;2.07;;
3131;SDS011;62090;52.330;9.104;2023-04-12T04:12:12;8.40;;;1.80;;
3131;SDS011;62090;52.330;9.104;2023-04-12T04:14:47;10.77;;;1.93;;
3131;SDS011;62090;52.330;9.104;2023-04-12T04:17:33;8.60;;;2.33;;
3131;SDS011;62090;52.330;9.104;2023-04-12T04:20:03;11.33;;;2.77;;
3131;SDS011;62090;52.330;9.104;2023-04-12T04:22:37;6.73;;;1.97;;
3131;SDS011;62090;52.330;9.104;2023-04-12T04:25:08;7.67;;;1.80;;
3131;SDS011;62090;52.330;9.104;2023-04-12T04:27:41;9.17;;;2.10;;
3131;SDS011;62090;52.330;9.104;2023-04-12T04:30:12;6.87;;;1.73;;
3131;SDS011;62090;52.330;9.104;2023-04-12T04:32:47;9.50;;;1.57;;
3131;SDS011;62090;52.330;9.104;2023-04-12T04:35:20;3.93;;;1.80;;
3131;SDS011;62090;52.330;9.104;2023-04-12T04:38:13;10.23;;;1.63;;
3131;SDS011;62090;52.330;9.104;2023-04-12T04:40:43;6.57;;;1.93;;
3131;SDS011;62090;52.330;9.104;2023-04-12T04:43:13;6.47;;;2.00;;
3131;SDS011;62090;52.330;9.104;2023-04-12T04:45:45;6.57;;;1.93;;
3131;SDS011;62090;52.330;9.104;2023-04-12T04:48:18;6.13;;;2.87;;
3131;SDS011;62090;52.330;9.104;2023-04-12T04:50:48;4.47;;;2.00;;
3131;SDS011;62090;52.330;9.104;2023-04-12T04:53:21;11.50;;;1.60;;
3131;SDS011;62090;52.330;9.104;2023-04-12T04:55:56;8.00;;;2.03;;
3131;SDS011;62090;52.330;9.104;2023-04-12T04:58:31;5.70;;;1.93;;
3131;SDS011;62090;52.330;9.104;2023-04-12T05:01:01;5.77;;;1.83;;
3131;SDS011;62090;52.330;9.104;2023-04-12T05:03:34;19.27;;;2.77;;
3131;SDS011;62090;52.330;9.104;2023-04-12T05:06:07;7.90;;;1.80;;
3131;SDS011;62090;52.330;9.104;2023-04-12T05:08:37;9.10;;;1.73;;
3131;SDS011;62090;52.330;9.104;2023-04-12T05:11:07;10.43;;;1.80;;
3131;SDS011;62090;52.330;9.104;2023-04-12T05:13:37;10.57;;;2.10;;
3131;SDS011;62090;52.330;9.104;2023-04-12T05:16:07;8.77;;;2.00;;
3131;SDS011;62090;52.330;9.104;2023-04-12T05:18:41;7.70;;;2.30;;
3131;SDS011;62090;52.330;9.104;2023-04-12T05:21:11;6.10;;;1.73;;
3131;SDS011;62090;52.330;9.104;2023-04-12T05:23:43;8.50;;;2.00;;
3131;SDS011;62090;52.330;9.104;2023-04-12T05:26:14;5.97;;;2.40;;
3131;SDS011;62090;52.330;9.104;2023-04-12T05:28:47;9.23;;;1.80;;
3131;SDS011;62090;52.330;9.104;2023-04-12T05:31:19;3.70;;;1.27;;
3131;SDS011;62090;52.330;9.104;2023-04-12T05:33:53;6.37;;;1.73;;
3131;SDS011;62090;52.330;9.104;2023-04-12T05:36:28;10.47;;;2.30;;
3131;SDS011;62090;52.330;9.104;2023-04-12T05:39:01;7.20;;;2.00;;
3131;SDS011;62090;52.330;9.104;2023-04-12T05:41:33;12.40;;;1.90;;
3131;SDS011;62090;52.330;9.104;2023-04-12T05:44:03;7.20;;;2.00;;
3131;SDS011;62090;52.330;9.104;2023-04-12T05:46:34;9.03;;;1.90;;
3131;SDS011;62090;52.330;9.104;2023-04-12T05:49:07;12.43;;;1.87;;
3131;SDS011;62090;52.330;9.104;2023-04-12T05:51:37;14.43;;;2.10;;
3131;SDS011;62090;52.330;9.104;2023-04-12T05:54:16;10.00;;;2.10;;
3131;SDS011;62090;52.330;9.104;2023-04-12T05:56:50;9.13;;;2.10;;
3131;SDS011;62090;52.330;9.104;2023-04-12T05:59:21;8.27;;;1.50;;
3131;SDS011;62090;52.330;9.104;2023-04-12T06:01:51;9.90;;;1.60;;
3131;SDS011;62090;52.330;9.104;2023-04-12T06:04:24;18.73;;;2.90;;
3131;SDS011;62090;52.330;9.104;2023-04-12T06:07:10;9.23;;;2.37;;
3131;SDS011;62090;52.330;9.104;2023-04-12T06:09:42;6.00;;;1.87;;
3131;SDS011;62090;52.330;9.104;2023-04-12T06:12:12;7.40;;;1.80;;
3131;SDS011;62090;52.330;9.104;2023-04-12T06:14:41;6.87;;;2.10;;
3131;SDS011;62090;52.330;9.104;2023-04-12T06:17:12;6.03;;;2.03;;
3131;SDS011;62090;52.330;9.104;2023-04-12T06:19:45;5.23;;;1.30;;
3131;SDS011;62090;52.330;9.104;2023-04-12T06:22:15;12.30;;;1.67;;
3131;SDS011;62090;52.330;9.104;2023-04-12T06:24:45;4.23;;;1.80;;
3131;SDS011;62090;52.330;9.104;2023-04-12T06:27:15;7.30;;;1.80;;
3131;SDS011;62090;52.330;9.104;2023-04-12T06:29:46;10.57;;;2.43;;
3131;SDS011;62090;52.330;9.104;2023-04-12T06:32:16;4.43;;;1.50;;
3131;SDS011;62090;52.330;9.104;2023-04-12T06:34:49;4.97;;;1.60;;
3131;SDS011;62090;52.330;9.104;2023-04-12T06:37:19;6.70;;;1.97;;
3131;SDS011;62090;52.330;9.104;2023-04-12T06:39:49;5.07;;;1.87;;
3131;SDS011;62090;52.330;9.104;2023-04-12T06:42:19;8.27;;;1.93;;
3131;SDS011;62090;52.330;9.104;2023-04-12T06:44:49;11.47;;;1.83;;
3131;SDS011;62090;52.330;9.104;2023-04-12T06:47:19;12.83;;;2.53;;
3131;SDS011;62090;52.330;9.104;2023-04-12T06:49:51;4.33;;;1.20;;
3131;SDS011;62090;52.330;9.104;2023-04-12T06:52:23;5.40;;;1.83;;
3131;SDS011;62090;52.330;9.104;2023-04-12T06:54:54;5.10;;;1.63;;
3131;SDS011;62090;52.330;9.104;2023-04-12T06:57:24;4.77;;;1.40;;
3131;SDS011;62090;52.330;9.104;2023-04-12T06:59:54;10.83;;;1.80;;
3131;SDS011;62090;52.330;9.104;2023-04-12T07:02:23;6.60;;;1.77;;
3131;SDS011;62090;52.330;9.104;2023-04-12T07:04:56;7.10;;;1.63;;
3131;SDS011;62090;52.330;9.104;2023-04-12T07:07:26;5.20;;;1.50;;
3131;SDS011;62090;52.330;9.104;2023-04-12T07:09:55;10.67;;;1.70;;
3131;SDS011;62090;52.330;9.104;2023-04-12T07:12:25;7.70;;;1.70;;
3131;SDS011;62090;52.330;9.104;2023-04-12T07:14:55;4.50;;;1.50;;
3131;SDS011;62090;52.330;9.104;2023-04-12T07:17:25;5.43;;;1.80;;
3131;SDS011;62090;52.330;9.104;2023-04-12T07:19:57;9.13;;;1.60;;
3131;SDS011;62090;52.330;9.104;2023-04-12T07:22:27;7.20;;;2.17;;
3131;SDS011;62090;52.330;9.104;2023-04-12T07:24:57;8.57;;;2.00;;
3131;SDS011;62090;52.330;9.104;2023-04-12T07:27:27;4.60;;;1.63;;
3131;SDS011;62090;52.330;9.104;2023-04-12T07:29:57;7.47;;;2.50;;
3131;SDS011;62090;52.330;9.104;2023-04-12T07:32:27;4.73;;;1.60;;
3131;SDS011;62090;52.330;9.104;2023-04-12T07:34:59;3.80;;;1.47;;
3131;SDS011;62090;52.330;9.104;2023-04-12T07:37:29;3.10;;;1.17;;
3131;SDS011;62090;52.330;9.104;2023-04-12T07:39:58;3.40;;;1.50;;
3131;SDS011;62090;52.330;9.104;2023-04-12T07:42:28;5.33;;;1.40;;
3131;SDS011;62090;52.330;9.104;2023-04-12T07:44:58;4.73;;;2.00;;
3131;SDS011;62090;52.330;9.104;2023-04-12T07:47:28;3.87;;;1.23;;
3131;SDS011;62090;52.330;9.104;2023-04-12T07:50:01;2.60;;;1.10;;
3131;SDS011;62090;52.330;9.104;2023-04-12T07:52:31;4.00;;;1.73;;
3131;SDS011;62090;52.330;9.104;2023-04-12T07:55:01;2.80;;;1.50;;
3131;SDS011;62090;52.330;9.104;2023-04-12T07:57:31;11.70;;;1.90;;
3131;SDS011;62090;52.330;9.104;2023-04-12T08:00:00;5.73;;;1.40;;
3131;SDS011;62090;52.330;9.104;2023-04-12T08:02:38;4.73;;;1.50;;
3131;SDS011;62090;52.330;9.104;2023-04-12T08:05:11;3.90;;;1.67;;
3131;SDS011;62090;52.330;9.104;2023-04-12T08:07:41;4.80;;;1.50;;
3131;SDS011;62090;52.330;9.104;2023-04-12T08:10:11;7.63;;;1.77;;
3131;SDS011;62090;52.330;9.104;2023-04-12T08:12:40;5.10;;;1.67;;
3131;SDS011;62090;52.330;9.104;2023-04-12T08:15:10;5.30;;;1.50;;
3131;SDS011;62090;52.330;9.104;2023-04-12T08:17:41;6.37;;;1.57;;
3131;SDS011;62090;52.330;9.104;2023-04-12T08:20:14;3.30;;;1.40;;
3131;SDS011;62090;52.330;9.104;2023-04-12T08:22:44;9.43;;;1.60;;
3131;SDS011;62090;52.330;9.104;2023-04-12T08:25:15;4.13;;;1.27;;
3131;SDS011;62090;52.330;9.104;2023-04-12T08:27:45;5.90;;;1.70;;
3131;SDS011;62090;52.330;9.104;2023-04-12T08:30:15;3.90;;;1.53;;
3131;SDS011;62090;52.330;9.104;2023-04-12T08:32:45;7.70;;;1.93;;
3131;SDS011;62090;52.330;9.104;2023-04-12T08:35:18;6.43;;;1.57;;
3131;SDS011;62090;52.330;9.104;2023-04-12T08:37:48;4.07;;;1.47;;
3131;SDS011;62090;52.330;9.104;2023-04-12T08:40:18;5.47;;;1.60;;
3131;SDS011;62090;52.330;9.104;2023-04-12T08:42:48;4.53;;;1.77;;
3131;SDS011;62090;52.330;9.104;2023-04-12T08:45:21;4.00;;;1.60;;
3131;SDS011;62090;52.330;9.104;2023-04-12T08:47:57;5.37;;;1.50;;
3131;SDS011;62090;52.330;9.104;2023-04-12T08:50:32;4.40;;;1.37;;
3131;SDS011;62090;52.330;9.104;2023-04-12T08:53:02;4.47;;;1.67;;
3131;SDS011;62090;52.330;9.104;2023-04-12T08:55:32;3.60;;;1.40;;
3131;SDS011;62090;52.330;9.104;2023-04-12T08:58:02;6.93;;;1.87;;
3131;SDS011;62090;52.330;9.104;2023-04-12T09:00:35;4.83;;;2.10;;
3131;SDS011;62090;52.330;9.104;2023-04-12T09:03:05;1.00;;;0.90;;
3131;SDS011;62090;52.330;9.104;2023-04-12T09:05:39;6.30;;;1.60;;
3131;SDS011;62090;52.330;9.104;2023-04-12T09:08:08;1.57;;;1.07;;
3131;SDS011;62090;52.330;9.104;2023-04-12T09:10:38;2.63;;;1.40;;
3131;SDS011;62090;52.330;9.104;2023-04-12T09:13:08;5.13;;;1.57;;
3131;SDS011;62090;52.330;9.104;2023-04-12T09:15:46;3.87;;;1.50;;
3131;SDS011;62090;52.330;9.104;2023-04-12T09:18:17;12.70;;;1.90;;
3131;SDS011;62090;52.330;9.104;2023-04-12T09:20:53;5.57;;;1.70;;
3131;SDS011;62090;52.330;9.104;2023-04-12T09:23:34;5.03;;;1.50;;
3131;SDS011;62090;52.330;9.104;2023-04-12T09:26:04;2.47;;;1.23;;
3131;SDS011;62090;52.330;9.104;2023-04-12T09:28:35;3.10;;;1.40;;
3131;SDS011;62090;52.330;9.104;2023-04-12T09:31:04;5.00;;;1.53;;
3131;SDS011;62090;52.330;9.104;2023-04-12T09:33:44;4.97;;;1.40;;
3131;SDS011;62090;52.330;9.104;2023-04-12T09:36:16;4.07;;;2.03;;
3131;SDS011;62090;52.330;9.104;2023-04-12T09:38:59;7.27;;;1.73;;
3131;SDS011;62090;52.330;9.104;2023-04-12T09:41:30;2.77;;;1.07;;
3131;SDS011;62090;52.330;9.104;2023-04-12T09:44:00;2.00;;;1.43;;
3131;SDS011;62090;52.330;9.104;2023-04-12T09:46:30;1.30;;;1.10;;
3131;SDS011;62090;52.330;9.104;2023-04-12T09:49:02;2.80;;;1.10;;
3131;SDS011;62090;52.330;9.104;2023-04-12T09:51:34;2.73;;;1.30;;
3131;SDS011;62090;52.330;9.104;2023-04-12T09:54:04;4.93;;;1.83;;
3131;SDS011;62090;52.330;9.104;2023-04-12T09:56:35;3.00;;;1.23;;
3131;SDS011;62090;52.330;9.104;2023-04-12T09:59:05;4.60;;;1.40;;
3131;SDS011;62090;52.330;9.104;2023-04-12T10:01:37;5.97;;;1.23;;
3131;SDS011;62090;52.330;9.104;2023-04-12T10:04:08;3.20;;;1.27;;
3131;SDS011;62090;52.330;9.104;2023-04-12T10:06:41;7.73;;;2.00;;
3131;SDS011;62090;52.330;9.104;2023-04-12T10:09:11;3.23;;;1.50;;
3131;SDS011;62090;52.330;9.104;2023-04-12T10:11:43;6.50;;;1.40;;
3131;SDS011;62090;52.330;9.104;2023-04-12T10:14:13;4.10;;;1.60;;
3131;SDS011;62090;52.330;9.104;2023-04-12T10:16:44;3.43;;;1.23;;
3131;SDS011;62090;52.330;9.104;2023-04-12T10:19:16;6.67;;;1.00;;
3131;SDS011;62090;52.330;9.104;2023-04-12T10:21:49;1.87;;;1.20;;
3131;SDS011;62090;52.330;9.104;2023-04-12T10:24:20;1.50;;;1.13;;
3131;SDS011;62090;52.330;9.104;2023-04-12T10:26:51;3.10;;;1.63;;
3131;SDS011;62090;52.330;9.104;2023-04-12T10:29:24;4.73;;;1.50;;
3131;SDS011;62090;52.330;9.104;2023-04-12T10:31:55;3.90;;;1.40;;
3131;SDS011;62090;52.330;9.104;2023-04-12T10:34:27;1.20;;;1.10;;
3131;SDS011;62090;52.330;9.104;2023-04-12T10:37:00;4.30;;;1.10;;
3131;SDS011;62090;52.330;9.104;2023-04-12T10:39:34;3.00;;;1.57;;
3131;SDS011;62090;52.330;9.104;2023-04-12T10:47:59;3.67;;;1.20;;
3131;SDS011;62090;52.330;9.104;2023-04-12T10:50:32;2.27;;;1.40;;
3131;SDS011;62090;52.330;9.104;2023-04-12T10:56:01;1.67;;;1.10;;
3131;SDS011;62090;52.330;9.104;2023-04-12T10:59:10;1.93;;;1.10;;
3131;SDS011;62090;52.330;9.104;2023-04-12T11:07:47;4.37;;;1.63;;
3131;SDS011;62090;52.330;9.104;2023-04-12T11:10:48;1.47;;;1.10;;
3131;SDS011;62090;52.330;9.104;2023-04-12T11:13:32;2.33;;;1.33;;
3131;SDS011;62090;52.330;9.104;2023-04-12T11:16:04;4.20;;;1.47;;
3131;SDS011;62090;52.330;9.104;2023-04-12T11:18:35;3.20;;;2.00;;
3131;SDS011;62090;52.330;9.104;2023-04-12T11:21:05;2.77;;;1.77;;
3131;SDS011;62090;52.330;9.104;2023-04-12T11:23:36;3.60;;;1.30;;
3131;SDS011;62090;52.330;9.104;2023-04-12T11:26:08;3.67;;;1.30;;
3131;SDS011;62090;52.330;9.104;2023-04-12T11:28:40;2.93;;;1.17;;
3131;SDS011;62090;52.330;9.104;2023-04-12T11:31:10;1.87;;;1.20;;
3131;SDS011;62090;52.330;9.104;2023-04-12T11:33:40;2.43;;;1.20;;
3131;SDS011;62090;52.330;9.104;2023-04-12T11:36:11;1.30;;;1.10;;
3131;SDS011;62090;52.330;9.104;2023-04-12T11:38:42;1.70;;;1.30;;
3131;SDS011;62090;52.330;9.104;2023-04-12T11:41:13;3.10;;;1.17;;
3131;SDS011;62090;52.330;9.104;2023-04-12T11:43:46;1.40;;;1.30;;
3131;SDS011;62090;52.330;9.104;2023-04-12T11:46:16;1.93;;;1.53;;
3131;SDS011;62090;52.330;9.104;2023-04-12T11:48:47;1.80;;;1.40;;
3131;SDS011;62090;52.330;9.104;2023-04-12T11:51:17;3.43;;;1.60;;
3131;SDS011;62090;52.330;9.104;2023-04-12T11:53:53;3.10;;;1.90;;
3131;SDS011;62090;52.330;9.104;2023-04-12T11:56:25;1.67;;;1.30;;
3131;SDS011;62090;52.330;9.104;2023-04-12T11:59:00;1.73;;;1.10;;
3131;SDS011;62090;52.330;9.104;2023-04-12T12:01:30;2.60;;;1.40;;
3131;SDS011;62090;52.330;9.104;2023-04-12T12:04:00;2.43;;;1.40;;
3131;SDS011;62090;52.330;9.104;2023-04-12T12:06:31;3.10;;;1.40;;
3131;SDS011;62090;52.330;9.104;2023-04-12T12:09:02;1.33;;;1.10;;
3131;SDS011;62090;52.330;9.104;2023-04-12T12:11:31;2.93;;;1.30;;
3131;SDS011;62090;52.330;9.104;2023-04-12T12:14:04;3.47;;;1.70;;
3131;SDS011;62090;52.330;9.104;2023-04-12T12:16:34;1.30;;;1.20;;
3131;SDS011;62090;52.330;9.104;2023-04-12T12:19:06;4.70;;;1.30;;
3131;SDS011;62090;52.330;9.104;2023-04-12T12:21:36;1.97;;;1.00;;
3131;SDS011;62090;52.330;9.104;2023-04-12T12:24:07;1.37;;;1.00;;
3131;SDS011;62090;52.330;9.104;2023-04-12T12:26:40;2.70;;;1.20;;
3131;SDS011;62090;52.330;9.104;2023-04-12T12:29:17;1.10;;;0.97;;
3131;SDS011;62090;52.330;9.104;2023-04-12T12:31:49;1.80;;;1.40;;
3131;SDS011;62090;52.330;9.104;2023-04-12T12:34:19;2.30;;;1.50;;
3131;SDS011;62090;52.330;9.104;2023-04-12T12:36:53;2.20;;;1.37;;
3131;SDS011;62090;52.330;9.104;2023-04-12T12:39:23;2.73;;;1.63;;
3131;SDS011;62090;52.330;9.104;2023-04-12T12:41:53;2.50;;;1.80;;
3131;SDS011;62090;52.330;9.104;2023-04-12T12:44:26;2.60;;;1.20;;
3131;SDS011;62090;52.330;9.104;2023-04-12T12:46:57;2.00;;;1.20;;
3131;SDS011;62090;52.330;9.104;2023-04-12T12:49:39;1.40;;;0.90;;
3131;SDS011;62090;52.330;9.104;2023-04-12T12:52:09;3.10;;;1.50;;
3131;SDS011;62090;52.330;9.104;2023-04-12T12:54:41;1.43;;;1.13;;
3131;SDS011;62090;52.330;9.104;2023-04-12T12:57:11;2.93;;;1.33;;
3131;SDS011;62090;52.330;9.104;2023-04-12T12:59:44;1.50;;;1.30;;
3131;SDS011;62090;52.330;9.104;2023-04-12T13:02:13;1.10;;;1.00;;
3131;SDS011;62090;52.330;9.104;2023-04-12T13:04:45;1.50;;;1.10;;
3131;SDS011;62090;52.330;9.104;2023-04-12T13:07:15;1.60;;;1.00;;
3131;SDS011;62090;52.330;9.104;2023-04-12T13:09:45;1.47;;;1.10;;
3131;SDS011;62090;52.330;9.104;2023-04-12T13:12:15;2.50;;;1.00;;
3131;SDS011;62090;52.330;9.104;2023-04-12T13:14:50;1.93;;;1.10;;
3131;SDS011;62090;52.330;9.104;2023-04-12T13:17:38;1.77;;;0.93;;
3131;SDS011;62090;52.330;9.104;2023-04-12T13:20:09;1.63;;;1.00;;
3131;SDS011;62090;52.330;9.104;2023-04-12T13:22:39;1.40;;;0.93;;
3131;SDS011;62090;52.330;9.104;2023-04-12T13:25:08;1.50;;;1.07;;
3131;SDS011;62090;52.330;9.104;2023-04-12T13:27:38;6.90;;;1.30;;
3131;SDS011;62090;52.330;9.104;2023-04-12T13:30:11;1.60;;;1.10;;
3131;SDS011;62090;52.330;9.104;2023-04-12T13:32:41;2.20;;;1.10;;
3131;SDS011;62090;52.330;9.104;2023-04-12T13:35:11;3.60;;;1.17;;
3131;SDS011;62090;52.330;9.104;2023-04-12T13:37:41;2.07;;;1.07;;
3131;SDS011;62090;52.330;9.104;2023-04-12T13:40:11;2.03;;;1.50;;
3131;SDS011;62090;52.330;9.104;2023-04-12T13:42:42;1.60;;;1.23;;
3131;SDS011;62090;52.330;9.104;2023-04-12T13:45:15;1.33;;;1.00;;
3131;SDS011;62090;52.330;9.104;2023-04-12T13:47:44;1.10;;;1.00;;
3131;SDS011;62090;52.330;9.104;2023-04-12T13:50:17;6.93;;;1.20;;
3131;SDS011;62090;52.330;9.104;2023-04-12T13:52:47;1.30;;;1.20;;
3131;SDS011;62090;52.330;9.104;2023-04-12T13:55:16;2.00;;;1.40;;
3131;SDS011;62090;52.330;9.104;2023-04-12T13:57:46;1.70;;;1.13;;
3131;SDS011;62090;52.330;9.104;2023-04-12T14:00:19;2.03;;;1.30;;
3131;SDS011;62090;52.330;9.104;2023-04-12T14:02:49;1.83;;;1.37;;
3131;SDS011;62090;52.330;9.104;2023-04-12T14:05:19;1.50;;;1.40;;
3131;SDS011;62090;52.330;9.104;2023-04-12T14:07:49;3.17;;;1.10;;
3131;SDS011;62090;52.330;9.104;2023-04-12T14:10:19;1.33;;;1.23;;
3131;SDS011;62090;52.330;9.104;2023-04-12T14:12:49;1.50;;;1.40;;
3131;SDS011;62090;52.330;9.104;2023-04-12T14:15:21;3.03;;;1.60;;
3131;SDS011;62090;52.330;9.104;2023-04-12T14:17:51;1.90;;;1.33;;
3131;SDS011;62090;52.330;9.104;2023-04-12T14:20:21;3.50;;;1.60;;
3131;SDS011;62090;52.330;9.104;2023-04-12T14:22:51;2.30;;;2.10;;
3131;SDS011;62090;52.330;9.104;2023-04-12T14:25:21;2.53;;;1.67;;
3131;SDS011;62090;52.330;9.104;2023-04-12T14:27:51;1.73;;;1.63;;
3131;SDS011;62090;52.330;9.104;2023-04-12T14:30:23;2.20;;;1.80;;
3131;SDS011;62090;52.330;9.104;2023-04-12T14:32:53;3.13;;;2.20;;
3131;SDS011;62090;52.330;9.104;2023-04-12T14:35:23;2.20;;;2.10;;
3131;SDS011;62090;52.330;9.104;2023-04-12T14:37:53;4.93;;;2.43;;
3131;SDS011;62090;52.330;9.104;2023-04-12T14:40:22;2.30;;;2.00;;
3131;SDS011;62090;52.330;9.104;2023-04-12T14:42:52;5.03;;;1.80;;
3131;SDS011;62090;52.330;9.104;2023-04-12T14:45:24;2.10;;;1.90;;
3131;SDS011;62090;52.330;9.104;2023-04-12T14:47:55;2.20;;;2.00;;
3131;SDS011;62090;52.330;9.104;2023-04-12T14:50:25;3.33;;;2.47;;
3131;SDS011;62090;52.330;9.104;2023-04-12T14:52:54;2.03;;;1.83;;
3131;SDS011;62090;52.330;9.104;2023-04-12T14:55:24;4.40;;;2.10;;
3131;SDS011;62090;52.330;9.104;2023-04-12T14:57:54;4.37;;;2.10;;
3131;SDS011;62090;52.330;9.104;2023-04-12T15:00:26;3.20;;;2.20;;
3131;SDS011;62090;52.330;9.104;2023-04-12T15:02:56;1.83;;;1.73;;
3131;SDS011;62090;52.330;9.104;2023-04-12T15:05:27;3.97;;;2.47;;
3131;SDS011;62090;52.330;9.104;2023-04-12T15:07:57;3.23;;;2.80;;
3131;SDS011;62090;52.330;9.104;2023-04-12T15:10:27;7.53;;;2.47;;
3131;SDS011;62090;52.330;9.104;2023-04-12T15:12:57;5.83;;;1.93;;
3131;SDS011;62090;52.330;9.104;2023-04-12T15:15:29;3.00;;;2.10;;
3131;SDS011;62090;52.330;9.104;2023-04-12T15:17:59;2.70;;;2.17;;
3131;SDS011;62090;52.330;9.104;2023-04-12T15:20:29;2.47;;;2.27;;
3131;SDS011;62090;52.330;9.104;2023-04-12T15:22:58;2.13;;;1.93;;
3131;SDS011;62090;52.330;9.104;2023-04-12T15:25:28;2.77;;;2.33;;
3131;SDS011;62090;52.330;9.104;2023-04-12T15:27:58;3.50;;;3.03;;
3131;SDS011;62090;52.330;9.104;2023-04-12T15:30:31;3.83;;;2.90;;
3131;SDS011;62090;52.330;9.104;2023-04-12T15:33:01;3.47;;;3.10;;
3131;SDS011;62090;52.330;9.104;2023-04-12T15:35:31;6.70;;;4.30;;
3131;SDS011;62090;52.330;9.104;2023-04-12T15:38:01;5.13;;;4.43;;
3131;SDS011;62090;52.330;9.104;2023-04-12T15:40:31;4.60;;;4.10;;
3131;SDS011;62090;52.330;9.104;2023-04-12T15:43:00;5.73;;;4.73;;
3131;SDS011;62090;52.330;9.104;2023-04-12T15:45:33;4.50;;;4.03;;